UTDL

Khudzhand Airport

Khudzhand, Tajikistan
METAR UTDL 111200Z 22002MPS 1700 BR NSC 06/03 Q1023 R08/CLRD70 NOSIG RMK QFE728/0971
Observed Flight Rules
Dec-11 @ 12:00 UTC (32 minutes ago) Instrument Flight Rules
Wind Visibility Clouds Conditions
220° at 4 knots 1,706 meters
  • Clear skies
  • Mist
Temperatures Readings
Current 6°C / 43°F
Dewpoint 3°C / 37°F
Humidity 81%
Altimeter 30.21" Hg
Pressure 1023 hPa
Elevation 442
METAR UTDL 111200Z 22002MPS 1700 BR NSC 06/03 Q1023 R08/CLRD70 NOSIG RMK QFE728/0971
Observed Flight Rules
Dec-11 @ 12:00 UTC
(32 minutes ago)
IFR
Wind Visibility
220° at 4 knots 1,706 meters
Clouds
  • Clear skies
Conditions
  • Mist
Temperature Dewpoint
6°C / 43°F 3°C / 37°F
Humidity Altimeter Pressure
81% 30.21" Hg 1023 hPa